Rochester, New Hampshire
Current Conditions -  °F | °C
As of 3:51 AM on Saturday 20 Dec 2014 (Local Time) from KDAW Reporting Station
Clear Clear  
Wind Chill: 15°   Ceiling: Unl
Heat Index: 23°   Visibility: 10mi
Dew Point: 19°   Wind: 7mph
Humidity: 85%   Direction: 340°NNW
Pressure: 30.18"   Gusts: NA
Location:  43.31°N, 70.98°W
Report Text: KDAW 200851Z AUTO 34006KT 10SM CLR M05/M07 A3018 RMK AO2 SLP222 T10501072 51012
Loading
Personal Weather Stations






























Interactive Weather Map New forecast layout! Learn more

10-Day Weather Forecast

Advertisements
Track Severe Weather on mobile